Kivalina Airport Kivalina US
ICAO: PAVL
IATA:
Category: Medium
Scheduled Services:

Elevation: 13 ft
TransAlt. 18000 ft.

Airport Communications:
ANCHORAGE CNTR:119.2
ASOS:135.8
CTAF/UNICOM:122.8
KOTZEBUE RDO:122.55

PAVL Zoom In..

Runways:

(A) RW 12 length 3000 ft width 60 ft
---- / hdg 122

(B) RW 30 length 3000 ft width 60 ft
---- / hdg 302

Location; PAVL
Day. 22 / Time. 03.53 Zulu
* Altimeter: 30.28
* Temperature: -23° c. 9.4°f.
* Wind from: 350° Speed 09 kn.
Dewpoint: -27° c.
Visibility: 10 Statute Miles.
Clouds: Overcast 3700 ft.

PAVL 220353Z AUTO 35009KT 10SM OVC037 M23/M27 A3028 RMK AO2 SLP252 T12331272 TSNO $


Wind From 350°
Speed 09 kn.

jpsM music video
CHECK IT OUT

jpsM - It Moves..

 
jpsmedia.com for Web Design  worldairports.se 2018   terms of use